Alfa Akdeniz — TCTL9 — position and weather

sailwx.info

Track history (hours):
 
Tides and Currents Weather Stations Pressure Air Temp Water Temp Dewpoint Dewpoint Depression Visibility Wind Speed Wind Dir Waves Ship Positions

Alfa Akdeniz

Last reported at 2017-Nov-19 07:13 UTC. Time now 2017-Nov-24 18:46 UTC.
Position N 36°09' E 031°05'.

; draft 5.1 m.

Type: Tanker. MMSI: 271002662.

Date/timePositionNaut miles runAvg speedWind from/ knotsBaromVisibWave heightAir tempDewpointWater temp
2017-Nov-19 07:13N 36°09' E 031°05'4 9.8
2017-Nov-19 06:48N 36°09' E 031°00'4 9.8
2017-Nov-19 06:26N 36°09' E 030°56'510.1
2017-Nov-19 05:59N 36°09' E 030°50'610.0
2017-Nov-19 05:26N 36°09' E 030°43'410.0
2017-Nov-19 04:59N 36°09' E 030°37'5 9.8
2017-Nov-19 04:30N 36°09' E 030°32'  
2017-Nov-09 12:46N 36°09' E 030°26'310.3
2017-Nov-09 12:30N 36°09' E 030°30'1110.1
2017-Nov-09 11:23N 36°09' E 030°44'510.4
2017-Nov-09 10:56N 36°09' E 030°49'510.6
2017-Nov-09 10:30N 36°09' E 030°55'610.6
2017-Nov-09 09:56N 36°09' E 031°03'610.8
2017-Nov-09 09:22N 36°09' E 031°10'510.5
2017-Nov-09 08:53N 36°09' E 031°16'410.4
2017-Nov-09 08:30N 36°09' E 031°21'510.4
2017-Nov-09 08:00N 36°09' E 031°28'510.4
2017-Nov-09 07:30N 36°09' E 031°34'  
Track history (hours):
 
Tides and Currents Weather Stations Pressure Air Temp Water Temp Dewpoint Dewpoint Depression Visibility Wind Speed Wind Dir Waves Ship Positions

Alfa Akdeniz

Last reported at 2017-Nov-19 07:13 UTC. Time now 2017-Nov-24 18:46 UTC.
Position N 36°09' E 031°05'.

; draft 5.1 m.

Type: Tanker. MMSI: 271002662.

Date/timePositionNaut miles runAvg speedWind from/ knotsBaromVisibWave heightAir tempDewpointWater temp
2017-Nov-19 07:13N 36°09' E 031°05'4 9.8
2017-Nov-19 06:48N 36°09' E 031°00'4 9.8
2017-Nov-19 06:26N 36°09' E 030°56'510.1
2017-Nov-19 05:59N 36°09' E 030°50'610.0
2017-Nov-19 05:26N 36°09' E 030°43'410.0
2017-Nov-19 04:59N 36°09' E 030°37'5 9.8
2017-Nov-19 04:30N 36°09' E 030°32'  
2017-Nov-09 12:46N 36°09' E 030°26'310.3
2017-Nov-09 12:30N 36°09' E 030°30'1110.1
2017-Nov-09 11:23N 36°09' E 030°44'510.4
2017-Nov-09 10:56N 36°09' E 030°49'510.6
2017-Nov-09 10:30N 36°09' E 030°55'610.6
2017-Nov-09 09:56N 36°09' E 031°03'610.8
2017-Nov-09 09:22N 36°09' E 031°10'510.5
2017-Nov-09 08:53N 36°09' E 031°16'410.4
2017-Nov-09 08:30N 36°09' E 031°21'510.4
2017-Nov-09 08:00N 36°09' E 031°28'510.4
2017-Nov-09 07:30N 36°09' E 031°34'  

Dump ship's entire track history